Time;durP1;ratioP1;P1;durP2;ratioP2;P2;SDS_P1;SDS_P2;PMS_P1;PMS_P2;Temp;Humidity;BMP_temperature;BMP_pressure;BME280_temperature;BME280_humidity;BME280_pressure;Samples;Min_cycle;Max_cycle;Signal;HPM_P1;HPM_P2
2021/03/17 00:02:03;;;;;;;79.80;66.90;;;20.60;45.70;;;;;;4348699;60;21132;-24
2021/03/17 00:07:04;;;;;;;78.35;66.65;;;20.60;45.70;;;;;;4354001;60;21601;-21
2021/03/17 00:12:05;;;;;;;80.60;69.03;;;20.50;45.60;;;;;;4360727;60;21534;-20
2021/03/17 00:17:06;;;;;;;73.43;63.17;;;20.50;45.90;;;;;;4347274;60;21043;-22
2021/03/17 00:22:08;;;;;;;75.43;62.22;;;20.50;45.60;;;;;;4345732;60;21587;-22
2021/03/17 00:27:09;;;;;;;73.70;62.53;;;20.50;45.50;;;;;;4353793;60;21114;-21
2021/03/17 00:32:10;;;;;;;75.97;65.45;;;20.50;45.50;;;;;;4367820;60;21598;-20
2021/03/17 00:37:11;;;;;;;73.00;62.22;;;20.50;45.40;;;;;;4359641;60;21240;-21
2021/03/17 00:42:11;;;;;;;72.20;59.42;;;20.50;45.30;;;;;;4354707;60;21111;-20
2021/03/17 00:47:12;;;;;;;71.50;60.92;;;20.50;45.40;;;;;;4349909;60;21091;-20
2021/03/17 00:52:13;;;;;;;67.43;58.53;;;20.50;45.30;;;;;;4372304;60;21090;-20
2021/03/17 00:57:14;;;;;;;68.18;57.35;;;20.50;45.20;;;;;;4405961;60;21103;-19
2021/03/17 01:02:15;;;;;;;66.07;56.37;;;20.50;45.20;;;;;;4351438;60;21131;-21
2021/03/17 01:07:17;;;;;;;66.25;57.80;;;20.50;45.20;;;;;;4352023;60;21144;-19
2021/03/17 01:12:18;;;;;;;63.20;53.92;;;20.50;45.40;;;;;;4358077;60;21087;-23
2021/03/17 01:17:19;;;;;;;62.47;53.70;;;20.50;45.10;;;;;;4381242;60;21084;-26
2021/03/17 01:22:20;;;;;;;62.13;53.58;;;20.50;45.10;;;;;;4339248;60;21830;-21
2021/03/17 01:27:21;;;;;;;61.97;53.55;;;20.50;45.00;;;;;;4351259;60;22379;-22
2021/03/17 01:32:22;;;;;;;62.28;54.83;;;20.50;45.00;;;;;;4348176;60;21155;-21
2021/03/17 01:37:24;;;;;;;62.90;55.33;;;20.50;45.00;;;;;;4336978;61;22017;-19
2021/03/17 01:42:25;;;;;;;63.92;54.03;;;20.50;45.30;;;;;;4374545;60;21193;-21
2021/03/17 01:47:25;;;;;;;62.25;53.00;;;20.50;45.10;;;;;;4351600;60;21818;-21
2021/03/17 01:52:28;;;;;;;58.70;49.58;;;20.50;44.90;;;;;;4345355;60;21223;-20
2021/03/17 01:57:29;;;;;;;57.05;48.65;;;20.40;44.70;;;;;;4350632;60;21160;-21
2021/03/17 02:02:30;;;;;;;56.80;50.22;;;20.40;44.70;;;;;;4359181;60;21079;-20
2021/03/17 02:07:31;;;;;;;55.33;48.55;;;20.40;44.80;;;;;;4350990;60;21153;-24
2021/03/17 02:14:34;;;;;;;56.13;48.30;;;20.50;44.70;;;;;;4356749;60;21589;-21
2021/03/17 02:20:17;;;;;;;55.67;47.00;;;20.40;44.90;;;;;;4353744;60;21067;-21
2021/03/17 02:27:18;;;;;;;51.72;45.00;;;20.40;44.60;;;;;;4342802;60;21211;-20
2021/03/17 02:33:02;;;;;;;51.03;44.97;;;20.40;44.70;;;;;;4347372;60;21075;-21
2021/03/17 02:38:08;;;;;;;50.05;43.03;;;20.40;44.70;;;;;;4337108;61;21563;-23
2021/03/17 02:43:15;;;;;;;52.75;46.03;;;20.40;44.60;;;;;;4353865;60;21075;-18
2021/03/17 02:48:23;;;;;;;51.15;44.88;;;20.40;44.70;;;;;;4344939;60;21067;-22
2021/03/17 02:53:27;;;;;;;49.08;43.40;;;20.40;44.60;;;;;;4340282;60;21558;-22
2021/03/17 02:58:30;;;;;;;45.85;40.33;;;20.40;44.40;;;;;;4346410;60;21163;-18
2021/03/17 03:03:33;;;;;;;48.08;41.65;;;20.40;44.30;;;;;;4366353;60;21167;-20
2021/03/17 03:08:37;;;;;;;50.30;43.50;;;20.40;44.40;;;;;;4347959;60;21074;-18
2021/03/17 03:13:37;;;;;;;47.45;40.63;;;20.40;44.70;;;;;;4344913;60;21125;-23
2021/03/17 03:18:41;;;;;;;47.03;41.10;;;20.40;44.50;;;;;;4338215;60;21558;-21
2021/03/17 03:23:42;;;;;;;45.35;40.15;;;20.40;44.50;;;;;;4366571;60;21144;-23
2021/03/17 03:28:47;;;;;;;42.85;37.60;;;20.40;44.40;;;;;;4337778;64;21582;-19
2021/03/17 03:33:48;;;;;;;44.75;38.97;;;20.40;44.10;;;;;;4360163;60;21201;-23
2021/03/17 03:38:50;;;;;;;44.30;37.42;;;20.40;44.40;;;;;;4360258;60;21095;-20
2021/03/17 03:43:50;;;;;;;42.35;37.20;;;20.40;44.10;;;;;;4336814;64;21095;-21
2021/03/17 03:48:51;;;;;;;42.97;38.03;;;20.30;44.10;;;;;;4341127;60;21058;-22
2021/03/17 03:54:31;;;;;;;42.25;37.65;;;20.40;44.50;;;;;;4379002;60;21112;-25
2021/03/17 03:59:36;;;;;;;39.97;34.80;;;20.40;44.10;;;;;;4349957;60;21279;-22
2021/03/17 04:04:42;;;;;;;37.55;32.95;;;20.30;44.00;;;;;;4365888;60;21158;-19
2021/03/17 04:09:46;;;;;;;39.78;35.05;;;20.30;44.00;;;;;;4340341;60;21055;-18
2021/03/17 04:14:57;;;;;;;40.20;35.70;;;20.30;43.90;;;;;;4355902;60;21059;-18
2021/03/17 04:20:04;;;;;;;35.95;31.62;;;20.30;44.00;;;;;;4349879;60;21036;-21
2021/03/17 04:25:07;;;;;;;36.92;32.15;;;20.30;43.90;;;;;;4371977;60;21129;-19
2021/03/17 04:30:10;;;;;;;37.55;33.40;;;20.30;43.80;;;;;;4362294;60;21530;-20
2021/03/17 04:35:13;;;;;;;35.90;31.40;;;20.30;43.90;;;;;;4372341;60;21156;-24
2021/03/17 04:40:15;;;;;;;37.05;33.00;;;20.30;43.80;;;;;;4370868;60;22293;-21
2021/03/17 04:45:20;;;;;;;37.50;32.95;;;20.30;43.90;;;;;;4346830;60;21076;-22
2021/03/17 04:50:25;;;;;;;36.63;32.63;;;20.30;44.10;;;;;;4353427;60;21108;-22
2021/03/17 04:55:26;;;;;;;34.78;30.70;;;20.30;43.90;;;;;;4358873;60;21107;-20
2021/03/17 05:00:28;;;;;;;32.53;29.00;;;20.30;43.70;;;;;;4337339;64;21043;-22
2021/03/17 05:05:33;;;;;;;33.65;29.75;;;20.30;43.80;;;;;;4362095;60;21067;-19
2021/03/17 05:10:36;;;;;;;33.85;30.23;;;20.30;43.80;;;;;;4337635;61;21521;-21
2021/03/17 05:15:38;;;;;;;32.65;28.95;;;20.30;43.90;;;;;;4358230;60;21160;-22
2021/03/17 05:20:41;;;;;;;31.50;28.05;;;20.30;44.10;;;;;;4366462;60;21159;-21
2021/03/17 05:25:43;;;;;;;32.70;29.15;;;20.30;43.90;;;;;;4354464;60;21217;-22
2021/03/17 05:30:49;;;;;;;30.77;26.85;;;20.30;44.00;;;;;;4339849;60;21165;-20
2021/03/17 05:35:50;;;;;;;30.10;26.58;;;20.30;43.90;;;;;;4347955;60;21115;-22
2021/03/17 05:40:55;;;;;;;30.55;26.33;;;20.30;44.00;;;;;;4337644;64;21599;-22
2021/03/17 05:45:57;;;;;;;30.85;27.37;;;20.30;44.00;;;;;;4349440;60;21126;-19
2021/03/17 05:51:02;;;;;;;29.92;26.58;;;20.30;43.90;;;;;;4361288;60;21598;-18
2021/03/17 05:56:03;;;;;;;29.70;26.02;;;20.30;44.00;;;;;;4342105;60;21104;-24
2021/03/17 06:01:07;;;;;;;29.65;26.40;;;20.30;44.20;;;;;;4373772;60;21116;-28
2021/03/17 06:06:08;;;;;;;30.70;26.58;;;20.30;44.30;;;;;;4339620;60;21076;-21
2021/03/17 06:11:15;;;;;;;30.70;25.98;;;20.20;44.40;;;;;;4391281;60;21100;-21
2021/03/17 06:16:20;;;;;;;30.27;24.85;;;20.20;44.40;;;;;;4337152;64;21055;-28
2021/03/17 06:21:21;;;;;;;29.05;24.95;;;20.30;44.50;;;;;;4361925;60;21047;-20
2021/03/17 06:26:23;;;;;;;28.20;24.27;;;20.20;44.40;;;;;;4336217;64;21087;-20
2021/03/17 06:31:24;;;;;;;28.40;25.27;;;20.20;44.40;;;;;;4346280;60;21679;-21
2021/03/17 06:36:26;;;;;;;27.85;24.23;;;20.30;44.50;;;;;;4337071;64;21068;-21
2021/03/17 06:41:51;;;;;;;27.92;24.40;;;20.20;44.40;;;;;;4352299;60;21111;-20
2021/03/17 06:47:11;;;;;;;29.00;25.85;;;20.20;44.50;;;;;;4363543;60;21601;-19
2021/03/17 06:52:35;;;;;;;25.95;23.23;;;20.20;44.60;;;;;;4343440;60;21474;-21
2021/03/17 06:57:37;;;;;;;28.33;23.67;;;20.20;44.50;;;;;;4354798;60;21091;-21
2021/03/17 07:02:39;;;;;;;27.95;24.87;;;20.20;44.30;;;;;;4360146;60;21152;-22
2021/03/17 07:07:48;;;;;;;26.35;22.92;;;20.20;44.40;;;;;;4355847;60;21127;-19
2021/03/17 07:12:54;;;;;;;27.60;24.58;;;20.20;44.30;;;;;;4340218;60;21039;-21
2021/03/17 07:18:18;;;;;;;28.87;25.77;;;20.20;44.30;;;;;;4337233;64;21100;-24
2021/03/17 07:23:44;;;;;;;30.50;26.75;;;20.20;44.40;;;;;;4350490;60;21138;-22
2021/03/17 07:28:57;;;;;;;29.35;26.15;;;20.20;44.50;;;;;;4339305;60;21573;-25
2021/03/17 07:34:12;;;;;;;31.10;27.42;;;20.20;44.40;;;;;;4344205;60;21537;-21
2021/03/17 07:39:23;;;;;;;29.17;25.12;;;20.20;44.40;;;;;;4363677;60;21092;-21
2021/03/17 07:44:25;;;;;;;31.37;26.52;;;20.20;44.20;;;;;;4341363;60;21087;-19
2021/03/17 07:49:28;;;;;;;32.67;28.33;;;20.20;44.20;;;;;;4351506;60;21117;-19
2021/03/17 07:54:32;;;;;;;29.73;25.90;;;20.20;44.30;;;;;;4337207;64;21159;-24
2021/03/17 07:59:36;;;;;;;33.40;29.80;;;20.20;44.30;;;;;;4352854;60;21083;-27
2021/03/17 08:04:38;;;;;;;34.65;29.37;;;20.20;44.30;;;;;;4339101;60;21087;-19
2021/03/17 08:09:39;;;;;;;33.45;28.00;;;20.20;44.20;;;;;;4344319;60;21148;-20
2021/03/17 08:14:42;;;;;;;36.72;32.20;;;20.20;44.40;;;;;;4358536;60;21545;-20
2021/03/17 08:19:43;;;;;;;38.15;33.08;;;20.30;44.80;;;;;;4368426;60;21650;-20
2021/03/17 08:24:44;;;;;;;39.38;34.85;;;20.30;45.10;;;;;;4340598;60;21080;-21
2021/03/17 08:29:50;;;;;;;40.75;35.47;;;20.40;45.40;;;;;;4344193;60;21514;-18
2021/03/17 08:34:56;;;;;;;42.83;36.63;;;20.40;45.60;;;;;;4365737;60;21072;-18
2021/03/17 08:39:57;;;;;;;48.10;38.75;;;20.40;45.80;;;;;;4356534;60;21047;-19
2021/03/17 08:45:00;;;;;;;48.65;39.95;;;20.50;46.00;;;;;;4370579;60;21573;-22
2021/03/17 08:53:39;;;;;;;45.47;40.25;;;20.50;46.20;;;;;;4365147;60;21537;-21
2021/03/17 08:58:40;;;;;;;51.37;42.92;;;20.50;46.30;;;;;;4333778;60;21096;-21
2021/03/17 09:03:44;;;;;;;53.22;45.33;;;20.60;46.60;;;;;;4355088;60;21610;-23
2021/03/17 09:09:04;;;;;;;54.97;46.08;;;20.60;47.10;;;;;;4347778;60;21541;-20
2021/03/17 09:14:07;;;;;;;53.80;45.03;;;20.60;47.10;;;;;;4337446;64;21131;-22
2021/03/17 09:19:13;;;;;;;58.78;49.95;;;20.70;47.20;;;;;;4336456;61;21172;-19
2021/03/17 09:24:34;;;;;;;65.50;54.10;;;20.60;46.70;;;;;;4347388;60;21648;-19
2021/03/17 09:29:36;;;;;;;65.28;54.42;;;20.60;46.60;;;;;;4372037;60;21182;-23
2021/03/17 09:34:37;;;;;;;64.43;53.40;;;20.70;46.50;;;;;;4359914;60;21087;-21
2021/03/17 09:39:46;;;;;;;70.90;56.22;;;20.60;46.40;;;;;;4367081;60;21621;-19
2021/03/17 09:44:58;;;;;;;70.72;58.05;;;20.70;46.20;;;;;;4339901;60;21203;-24
2021/03/17 09:49:59;;;;;;;69.72;57.58;;;20.80;46.30;;;;;;4362606;60;21087;-24
2021/03/17 09:55:00;;;;;;;69.18;58.17;;;21.00;46.40;;;;;;4357961;60;22216;-25
2021/03/17 10:00:01;;;;;;;73.45;59.35;;;21.10;46.30;;;;;;4347237;60;21071;-19
2021/03/17 10:05:02;;;;;;;76.30;62.70;;;21.20;46.30;;;;;;4339363;60;21147;-18
2021/03/17 10:10:06;;;;;;;76.85;61.17;;;21.40;46.50;;;;;;4350617;60;21602;-22
2021/03/17 10:15:09;;;;;;;77.05;62.95;;;21.50;46.40;;;;;;4346367;60;22454;-17
2021/03/17 10:20:16;;;;;;;77.10;64.35;;;21.60;46.60;;;;;;4336583;64;21064;-22
2021/03/17 10:25:22;;;;;;;79.93;64.68;;;21.70;46.60;;;;;;4362688;60;21115;-22
2021/03/17 10:30:40;;;;;;;86.57;69.10;;;21.70;46.70;;;;;;4350315;60;21048;-19
2021/03/17 10:35:44;;;;;;;84.30;66.60;;;21.80;46.80;;;;;;4343749;60;21055;-23
2021/03/17 10:40:45;;;;;;;85.93;70.30;;;21.90;46.90;;;;;;4343194;60;21075;-20
2021/03/17 10:45:55;;;;;;;83.03;69.72;;;21.90;46.90;;;;;;4346468;60;21082;-19
2021/03/17 10:50:57;;;;;;;87.05;72.25;;;22.00;47.00;;;;;;4377140;60;21147;-22
2021/03/17 10:56:00;;;;;;;82.53;70.62;;;22.10;47.10;;;;;;4350846;60;21159;-23
2021/03/17 11:01:03;;;;;;;89.75;72.00;;;22.10;47.10;;;;;;4339936;60;21622;-21
2021/03/17 11:06:18;;;;;;;85.35;71.43;;;22.20;47.20;;;;;;4334640;64;21128;-21
2021/03/17 11:11:19;;;;;;;90.90;73.65;;;22.20;47.20;;;;;;4360724;60;21083;-21
2021/03/17 11:16:32;;;;;;;88.57;73.60;;;22.20;47.20;;;;;;4356836;60;21257;-26
2021/03/17 11:21:38;;;;;;;89.00;73.70;;;22.30;47.30;;;;;;4369402;60;21664;-27
2021/03/17 11:26:40;;;;;;;85.62;71.47;;;22.30;47.30;;;;;;4368026;60;21095;-22
2021/03/17 11:31:42;;;;;;;86.93;73.40;;;22.40;47.40;;;;;;4339356;60;21209;-25
2021/03/17 11:36:43;;;;;;;84.55;71.68;;;22.40;47.40;;;;;;4365858;60;21143;-21
2021/03/17 11:41:46;;;;;;;91.78;75.95;;;22.40;48.10;;;;;;4343186;60;21115;-20
2021/03/17 11:46:48;;;;;;;87.28;73.03;;;22.50;47.60;;;;;;4336787;60;21067;-19
2021/03/17 11:51:49;;;;;;;89.50;77.28;;;22.50;47.60;;;;;;4372101;60;21084;-20
2021/03/17 11:56:50;;;;;;;86.28;72.87;;;22.60;47.70;;;;;;4343560;60;21530;-20
2021/03/17 12:01:50;;;;;;;91.87;77.20;;;22.60;47.80;;;;;;4343851;60;21124;-22
2021/03/17 12:06:51;;;;;;;93.43;76.10;;;22.60;47.70;;;;;;4344088;60;21102;-22
2021/03/17 12:11:52;;;;;;;97.72;79.15;;;22.70;47.90;;;;;;4350390;60;21119;-25
2021/03/17 12:16:54;;;;;;;99.07;81.55;;;22.70;47.40;;;;;;4344201;60;21107;-22
2021/03/17 12:21:55;;;;;;;96.20;80.65;;;22.60;47.10;;;;;;4348757;60;21095;-23
2021/03/17 12:26:55;;;;;;;96.37;80.87;;;22.60;46.90;;;;;;4369661;60;21179;-21
2021/03/17 12:31:56;;;;;;;95.78;81.63;;;22.60;46.70;;;;;;4344351;60;21068;-20
2021/03/17 12:36:57;;;;;;;97.35;83.43;;;22.60;46.60;;;;;;4343016;60;21123;-23
2021/03/17 12:41:58;;;;;;;98.00;81.65;;;22.60;46.40;;;;;;4346615;60;21079;-19
2021/03/17 12:47:00;;;;;;;98.78;81.95;;;22.60;46.20;;;;;;4346304;60;21195;-20
2021/03/17 12:52:01;;;;;;;101.60;80.72;;;22.60;46.00;;;;;;4356243;60;21478;-23
2021/03/17 12:57:04;;;;;;;100.55;83.30;;;22.60;46.20;;;;;;4343887;60;21103;-23
2021/03/17 13:02:05;;;;;;;101.62;83.12;;;22.60;46.50;;;;;;4339938;60;21091;-21
2021/03/17 13:07:06;;;;;;;105.93;87.25;;;22.50;46.70;;;;;;4340104;60;21550;-19
2021/03/17 13:12:08;;;;;;;107.40;87.10;;;22.50;47.00;;;;;;4336584;64;21151;-22
2021/03/17 13:17:09;;;;;;;104.15;87.60;;;22.50;47.20;;;;;;4336829;60;21111;-20
2021/03/17 13:22:10;;;;;;;95.68;81.05;;;22.50;47.50;;;;;;4371605;60;21128;-20
2021/03/17 13:27:12;;;;;;;98.72;84.50;;;22.40;47.60;;;;;;4358436;60;21094;-20
2021/03/17 13:32:13;;;;;;;98.55;79.32;;;22.40;48.00;;;;;;4339278;60;21176;-21
2021/03/17 13:37:14;;;;;;;97.05;79.57;;;22.30;48.00;;;;;;4365363;60;21100;-22
2021/03/17 13:42:15;;;;;;;97.90;80.50;;;22.30;48.20;;;;;;4353592;60;21147;-19
2021/03/17 13:47:16;;;;;;;97.72;82.03;;;22.30;48.40;;;;;;4360372;60;21111;-19
2021/03/17 13:52:16;;;;;;;94.40;79.10;;;22.20;48.60;;;;;;4342810;60;21108;-21
2021/03/17 13:57:17;;;;;;;98.78;82.05;;;22.20;48.80;;;;;;4361926;60;21570;-18
2021/03/17 14:02:19;;;;;;;88.18;74.00;;;22.20;49.00;;;;;;4347104;60;21609;-25
2021/03/17 14:07:20;;;;;;;94.90;80.53;;;22.20;49.10;;;;;;4342681;60;21569;-20
2021/03/17 14:12:21;;;;;;;96.75;79.28;;;22.20;49.30;;;;;;4344681;60;21115;-20
2021/03/17 14:17:21;;;;;;;89.45;74.00;;;22.20;49.40;;;;;;4336190;60;21139;-22
2021/03/17 14:22:22;;;;;;;95.72;80.00;;;22.20;49.60;;;;;;4344172;60;21188;-25
2021/03/17 14:27:23;;;;;;;90.38;74.35;;;22.10;49.60;;;;;;4344229;60;21577;-23
2021/03/17 14:32:24;;;;;;;94.62;80.35;;;22.10;49.80;;;;;;4363442;60;21063;-19
2021/03/17 14:37:25;;;;;;;89.22;74.43;;;22.10;49.80;;;;;;4343316;60;21112;-25
2021/03/17 14:42:26;;;;;;;87.50;72.97;;;22.10;49.90;;;;;;4345305;60;21087;-21
2021/03/17 14:47:27;;;;;;;88.93;73.12;;;22.10;50.10;;;;;;4348458;60;21618;-22
2021/03/17 14:52:28;;;;;;;89.72;75.72;;;22.10;50.20;;;;;;4353272;60;22433;-20
2021/03/17 14:57:29;;;;;;;88.57;74.12;;;22.10;50.20;;;;;;4336332;60;21225;-21
2021/03/17 15:02:30;;;;;;;89.00;73.12;;;22.10;50.30;;;;;;4357234;60;21143;-19
2021/03/17 15:07:31;;;;;;;90.57;70.12;;;22.10;50.50;;;;;;4347249;60;21152;-22
2021/03/17 15:12:33;;;;;;;88.55;72.80;;;22.10;50.40;;;;;;4348053;60;21545;-19
2021/03/17 15:17:36;;;;;;;84.03;68.75;;;22.10;50.50;;;;;;4346744;60;21082;-20
2021/03/17 15:22:37;;;;;;;89.30;70.37;;;22.10;50.70;;;;;;4342971;60;21039;-21
2021/03/17 15:27:38;;;;;;;91.75;76.62;;;22.10;50.70;;;;;;4344169;60;21525;-25
2021/03/17 15:32:40;;;;;;;85.85;72.05;;;22.00;50.60;;;;;;4344336;60;21157;-19
2021/03/17 15:37:42;;;;;;;86.72;72.10;;;22.00;50.60;;;;;;4342199;60;21128;-22
2021/03/17 15:42:43;;;;;;;93.90;74.57;;;22.00;50.70;;;;;;4350984;60;21602;-20
2021/03/17 15:47:45;;;;;;;83.72;69.75;;;22.00;50.90;;;;;;4357075;60;21083;-21
2021/03/17 15:52:47;;;;;;;84.03;69.50;;;22.00;51.00;;;;;;4371111;60;21067;-21
2021/03/17 15:57:47;;;;;;;83.05;72.20;;;22.00;51.10;;;;;;4385890;60;21079;-20
2021/03/17 16:02:49;;;;;;;83.82;70.32;;;22.00;51.80;;;;;;4353386;60;21087;-21
2021/03/17 16:07:50;;;;;;;89.10;72.20;;;22.00;51.20;;;;;;4337786;60;21151;-22
2021/03/17 16:12:57;;;;;;;84.72;70.03;;;21.90;50.80;;;;;;4342388;60;21131;-19
2021/03/17 16:17:58;;;;;;;84.68;68.37;;;21.80;50.80;;;;;;4392808;60;21066;-20
2021/03/17 16:22:59;;;;;;;85.75;70.93;;;21.70;50.70;;;;;;4341610;60;21625;-19
2021/03/17 16:28:00;;;;;;;84.15;67.82;;;21.70;50.70;;;;;;4371829;60;21199;-19
2021/03/17 16:33:03;;;;;;;86.28;71.60;;;21.60;50.50;;;;;;4367088;60;21132;-19
2021/03/17 16:38:05;;;;;;;83.53;68.80;;;21.60;50.50;;;;;;4352921;60;21063;-19
2021/03/17 16:43:08;;;;;;;86.37;72.55;;;21.50;50.40;;;;;;4363236;60;21106;-22
2021/03/17 16:48:10;;;;;;;87.10;71.10;;;21.50;50.40;;;;;;4348977;60;21067;-19
2021/03/17 16:53:11;;;;;;;90.72;73.50;;;21.50;50.40;;;;;;4355145;60;21597;-26
2021/03/17 16:58:12;;;;;;;90.93;74.30;;;21.40;50.30;;;;;;4369633;60;21167;-22
2021/03/17 17:03:13;;;;;;;88.93;74.57;;;21.40;50.40;;;;;;4340836;60;21534;-20
2021/03/17 17:08:14;;;;;;;87.37;73.68;;;21.40;50.20;;;;;;4349533;60;21068;-24
2021/03/17 17:13:14;;;;;;;83.22;69.57;;;21.30;50.10;;;;;;4347386;60;21171;-21
2021/03/17 17:18:15;;;;;;;83.72;68.45;;;21.30;50.10;;;;;;4338930;60;21136;-20
2021/03/17 17:23:16;;;;;;;84.37;70.82;;;21.30;50.00;;;;;;4372305;60;21171;-21
2021/03/17 17:28:17;;;;;;;84.65;70.62;;;21.30;50.50;;;;;;4350154;60;21669;-20
2021/03/17 17:33:21;;;;;;;86.70;72.90;;;21.20;49.90;;;;;;4355290;60;21079;-23
2021/03/17 17:38:22;;;;;;;86.37;70.57;;;21.20;49.80;;;;;;4353082;60;21071;-22
2021/03/17 17:43:23;;;;;;;89.13;72.05;;;21.20;49.70;;;;;;4364129;60;21072;-24
2021/03/17 17:48:24;;;;;;;84.90;69.47;;;21.20;49.70;;;;;;4336739;64;21144;-21
2021/03/17 17:53:25;;;;;;;82.45;67.80;;;21.10;49.70;;;;;;4378058;60;21530;-23
2021/03/17 17:58:26;;;;;;;80.45;65.68;;;21.10;49.50;;;;;;4350125;60;21096;-19
2021/03/17 18:03:27;;;;;;;84.47;69.93;;;21.10;49.50;;;;;;4339298;60;21063;-19
2021/03/17 18:08:28;;;;;;;81.97;67.93;;;21.10;49.40;;;;;;4347712;60;21123;-21
2021/03/17 18:13:29;;;;;;;79.20;65.82;;;21.10;49.50;;;;;;4347527;60;21131;-20
2021/03/17 18:18:30;;;;;;;77.32;64.65;;;21.10;49.30;;;;;;4378203;60;21100;-21
2021/03/17 18:23:30;;;;;;;80.87;66.62;;;21.10;49.30;;;;;;4337039;60;21126;-21
2021/03/17 18:28:31;;;;;;;81.40;68.72;;;21.00;49.30;;;;;;4337331;64;21581;-21
2021/03/17 18:33:32;;;;;;;77.05;65.93;;;21.00;49.10;;;;;;4337118;60;21076;-20
2021/03/17 18:38:34;;;;;;;77.40;64.95;;;21.00;49.20;;;;;;4356589;60;21087;-19
2021/03/17 18:43:35;;;;;;;81.30;67.20;;;21.00;49.10;;;;;;4336647;64;21613;-19
2021/03/17 18:48:36;;;;;;;82.85;67.47;;;21.00;49.00;;;;;;4354518;60;21494;-20
2021/03/17 18:53:40;;;;;;;82.72;66.25;;;21.00;49.00;;;;;;4355181;60;21076;-21
2021/03/17 18:58:41;;;;;;;76.75;64.10;;;20.90;49.50;;;;;;4374076;60;21141;-18
2021/03/17 19:03:42;;;;;;;76.12;61.60;;;20.90;48.80;;;;;;4342182;60;21144;-19
2021/03/17 19:08:44;;;;;;;77.55;63.60;;;20.90;48.70;;;;;;4355951;60;21527;-19
2021/03/17 19:13:47;;;;;;;78.07;63.15;;;20.90;48.70;;;;;;4337407;64;21147;-19
2021/03/17 19:18:48;;;;;;;78.10;64.37;;;20.90;48.70;;;;;;4355344;60;21061;-23
2021/03/17 19:23:49;;;;;;;78.93;64.37;;;20.90;48.70;;;;;;4343712;60;21124;-18
2021/03/17 19:28:50;;;;;;;74.28;60.12;;;20.90;48.60;;;;;;4348976;60;21055;-19
2021/03/17 19:33:51;;;;;;;77.57;62.62;;;20.90;48.50;;;;;;4368364;60;21071;-19
2021/03/17 19:38:53;;;;;;;77.78;63.40;;;20.90;48.50;;;;;;4337408;60;21100;-23
2021/03/17 19:43:54;;;;;;;73.62;59.95;;;20.90;48.50;;;;;;4360330;60;21087;-20
2021/03/17 19:48:57;;;;;;;76.10;61.65;;;20.80;48.40;;;;;;4339448;60;21724;-23
2021/03/17 19:53:58;;;;;;;74.55;60.38;;;20.90;48.40;;;;;;4364090;60;21624;-20
2021/03/17 19:58:59;;;;;;;74.10;60.97;;;20.90;48.30;;;;;;4338380;60;21175;-27
2021/03/17 20:04:00;;;;;;;72.45;58.30;;;20.80;48.20;;;;;;4351034;60;21127;-21
2021/03/17 20:09:05;;;;;;;73.28;58.03;;;20.80;48.60;;;;;;4350622;60;21162;-21
2021/03/17 20:14:05;;;;;;;70.95;58.92;;;20.80;48.20;;;;;;4348438;60;21672;-22
2021/03/17 20:19:07;;;;;;;74.32;59.67;;;20.80;48.10;;;;;;4337230;64;21167;-24
2021/03/17 20:24:08;;;;;;;71.40;57.47;;;20.80;48.20;;;;;;4360788;60;21585;-21
2021/03/17 20:29:10;;;;;;;73.07;59.50;;;20.80;48.10;;;;;;4339334;60;21100;-20
2021/03/17 20:34:11;;;;;;;70.93;57.97;;;20.80;48.00;;;;;;4347836;60;21124;-21
2021/03/17 20:39:12;;;;;;;74.43;59.65;;;20.80;48.00;;;;;;4342967;60;21596;-24
2021/03/17 20:44:13;;;;;;;73.12;59.08;;;20.80;48.00;;;;;;4406266;60;21067;-23
2021/03/17 20:49:13;;;;;;;73.20;59.50;;;20.80;48.10;;;;;;4346709;60;21080;-19
2021/03/17 20:54:14;;;;;;;71.80;59.10;;;20.80;48.00;;;;;;4340934;60;21079;-19
2021/03/17 20:59:15;;;;;;;71.97;58.97;;;20.70;47.90;;;;;;4354705;60;21108;-23
2021/03/17 21:04:16;;;;;;;70.72;57.53;;;20.70;47.80;;;;;;4382491;60;21549;-22
2021/03/17 21:09:17;;;;;;;73.85;58.87;;;20.70;47.80;;;;;;4348269;60;21063;-21
2021/03/17 21:14:18;;;;;;;74.75;56.88;;;20.70;47.70;;;;;;4354360;60;21541;-21
2021/03/17 21:19:22;;;;;;;72.18;58.78;;;20.70;47.70;;;;;;4349158;60;21566;-22
2021/03/17 21:24:24;;;;;;;67.70;55.95;;;20.70;47.70;;;;;;4337518;60;21126;-21
2021/03/17 21:29:25;;;;;;;71.72;55.38;;;20.70;47.60;;;;;;4343536;60;21677;-23
2021/03/17 21:34:26;;;;;;;71.53;55.70;;;20.70;47.60;;;;;;4365078;60;21083;-22
2021/03/17 21:39:27;;;;;;;69.72;56.45;;;20.70;47.60;;;;;;4344698;60;21167;-21
2021/03/17 21:44:28;;;;;;;67.40;53.78;;;20.70;47.60;;;;;;4350377;60;21123;-20
2021/03/17 21:49:29;;;;;;;67.93;54.22;;;20.70;48.30;;;;;;4365771;60;21522;-19
2021/03/17 21:54:30;;;;;;;68.22;54.13;;;20.70;47.40;;;;;;4396331;60;21689;-19
2021/03/17 21:59:31;;;;;;;65.60;52.50;;;20.70;47.40;;;;;;4345186;60;21051;-22
2021/03/17 22:04:32;;;;;;;69.35;55.42;;;20.70;47.40;;;;;;4344769;60;21076;-21
2021/03/17 22:09:33;;;;;;;71.75;54.75;;;20.60;47.30;;;;;;4337444;60;21080;-22
2021/03/17 22:14:33;;;;;;;68.72;55.38;;;20.60;47.30;;;;;;4350269;60;21108;-22
2021/03/17 22:19:34;;;;;;;65.43;52.95;;;20.60;47.30;;;;;;4358721;60;21112;-22
2021/03/17 22:24:35;;;;;;;67.10;54.03;;;20.60;47.20;;;;;;4346057;60;21142;-22
2021/03/17 22:29:36;;;;;;;68.20;54.45;;;20.70;47.80;;;;;;4343967;60;21031;-21
2021/03/17 22:34:37;;;;;;;68.75;56.20;;;20.60;47.10;;;;;;4402658;60;21043;-22
2021/03/17 22:39:38;;;;;;;65.62;52.90;;;20.60;47.20;;;;;;4351544;60;21549;-21
2021/03/17 22:44:39;;;;;;;65.93;53.72;;;20.70;47.10;;;;;;4381546;60;21085;-23
2021/03/17 22:49:39;;;;;;;67.43;54.10;;;20.60;47.00;;;;;;4368787;60;21559;-23
2021/03/17 22:54:42;;;;;;;69.32;55.97;;;20.60;47.00;;;;;;4340750;60;21067;-21
2021/03/17 22:59:42;;;;;;;68.75;56.20;;;20.60;47.00;;;;;;4371072;60;21055;-23
2021/03/17 23:04:43;;;;;;;69.12;55.08;;;20.60;47.10;;;;;;4340434;60;21546;-20
2021/03/17 23:09:50;;;;;;;66.60;53.40;;;20.60;46.90;;;;;;4340170;60;21051;-20
2021/03/17 23:14:51;;;;;;;66.43;53.80;;;20.60;46.80;;;;;;4346874;60;21092;-22
2021/03/17 23:19:52;;;;;;;66.30;53.70;;;20.60;46.80;;;;;;4337709;64;21067;-22
2021/03/17 23:24:58;;;;;;;71.00;54.70;;;20.60;46.80;;;;;;4337573;60;21086;-22
2021/03/17 23:30:12;;;;;;;66.05;53.30;;;20.60;46.70;;;;;;4357162;60;21047;-18
2021/03/17 23:35:35;;;;;;;69.93;54.42;;;20.60;46.70;;;;;;4359393;60;21446;-21
2021/03/17 23:40:50;;;;;;;67.87;53.40;;;20.60;46.70;;;;;;4352295;60;21174;-20
2021/03/17 23:45:54;;;;;;;68.37;52.95;;;20.50;46.60;;;;;;4386297;60;21151;-21
2021/03/17 23:51:13;;;;;;;69.12;53.58;;;20.60;46.60;;;;;;4361878;60;21148;-21
2021/03/17 23:56:15;;;;;;;68.85;53.00;;;20.60;46.50;;;;;;4356401;60;21171;-22
